Aviation Digital Data Service (ADDS)

Output produced by METARs form (1206 UTC 24 March 2017)
found at http://www.aviationweather.gov/adds/metars/
 
FCBB 241100Z 00000KT 9000 NSC 27/21 Q1013 NOSIG
TAF FCBB 241100Z 2412/2518 24004KT 9000 SCT018 FEW030CB 
     BECMG 2419/2421 SCT016 
     PROB30 2504/2508 4000 TSRA SCT015 FEW030CB 
     BECMG 2512/2514 FEW020 FEW030CB
       
FCPP 241100Z 18012KT 9999 FEW016 30/24 Q1012 NOSIG
TAF FCPP 241100Z 2412/2512 20008KT 9000 SCT016 FEW030CB 
     BECMG 2419/2421 SCT018